createdAt,value
2018-02-20T00:01:28.011Z,2.30
2018-02-20T00:03:55.568Z,2.30
2018-02-20T00:06:23.103Z,2.30
2018-02-20T00:08:51.654Z,2.30
2018-02-20T00:11:19.961Z,2.40
2018-02-20T00:13:47.523Z,2.40
2018-02-20T00:16:15.066Z,2.40
2018-02-20T00:18:42.611Z,2.30
2018-02-20T00:21:10.185Z,2.40
2018-02-20T00:23:37.713Z,2.40
2018-02-20T00:26:06.046Z,2.40
2018-02-20T00:28:33.645Z,2.40
2018-02-20T00:31:01.194Z,2.40
2018-02-20T00:33:28.730Z,2.40
2018-02-20T00:35:56.284Z,2.20
2018-02-20T00:38:23.886Z,2.10
2018-02-20T00:40:51.409Z,2.10
2018-02-20T00:43:18.960Z,2.20
2018-02-20T00:45:46.483Z,2.30
2018-02-20T00:48:14.052Z,2.20
2018-02-20T00:50:41.596Z,2.30
2018-02-20T00:53:09.914Z,2.10
2018-02-20T00:55:38.346Z,2.10
2018-02-20T00:58:05.885Z,2.10
2018-02-20T01:00:34.208Z,1.70
2018-02-20T01:03:01.732Z,1.60
2018-02-20T01:05:31.051Z,1.70
2018-02-20T01:07:58.581Z,1.70
2018-02-20T01:10:26.919Z,1.80
2018-02-20T01:12:55.410Z,1.80
2018-02-20T01:15:23.924Z,1.60
2018-02-20T01:17:52.227Z,1.70
2018-02-20T01:20:20.711Z,1.70
2018-02-20T01:22:48.273Z,1.40
2018-02-20T01:25:15.815Z,1.60
2018-02-20T01:27:43.379Z,1.50
2018-02-20T01:30:10.908Z,1.50
2018-02-20T01:32:39.238Z,1.40
2018-02-20T01:35:06.807Z,1.40
2018-02-20T01:37:34.339Z,1.50
2018-02-20T01:40:01.922Z,1.50
2018-02-20T01:42:29.450Z,1.30
2018-02-20T01:44:57.234Z,1.60
2018-02-20T01:47:24.826Z,1.80
2018-02-20T01:49:52.364Z,1.80
2018-02-20T01:52:19.921Z,1.90
2018-02-20T01:54:47.467Z,1.90
2018-02-20T01:57:16.003Z,1.90
2018-02-20T01:59:44.499Z,1.90
2018-02-20T02:02:12.031Z,2.00
2018-02-20T02:04:41.547Z,2.00
2018-02-20T02:07:10.047Z,1.90
2018-02-20T02:09:37.610Z,2.00
2018-02-20T02:12:05.928Z,2.10
2018-02-20T02:14:33.662Z,2.10
2018-02-20T02:17:01.220Z,2.10
2018-02-20T02:19:28.781Z,2.20
2018-02-20T02:21:56.338Z,2.20
2018-02-20T02:24:23.862Z,2.20
2018-02-20T02:26:51.573Z,2.20
2018-02-20T02:29:19.123Z,2.20
2018-02-20T02:31:46.794Z,2.10
2018-02-20T02:34:14.909Z,2.10
2018-02-20T02:36:42.446Z,2.20
2018-02-20T02:39:10.014Z,2.20
2018-02-20T02:41:37.561Z,2.10
2018-02-20T02:44:05.121Z,2.00
2018-02-20T02:46:32.658Z,2.10
2018-02-20T02:49:00.229Z,2.20
2018-02-20T02:51:27.757Z,2.30
2018-02-20T02:53:55.288Z,2.30
2018-02-20T02:56:22.839Z,2.30
2018-02-20T02:58:52.190Z,2.20
2018-02-20T03:01:19.771Z,2.20
2018-02-20T03:03:47.292Z,2.20
2018-02-20T03:06:15.615Z,2.20
2018-02-20T03:08:43.146Z,2.20
2018-02-20T03:11:10.732Z,2.20
2018-02-20T03:13:38.298Z,2.30
2018-02-20T03:16:05.827Z,2.30
2018-02-20T03:18:33.384Z,2.20
2018-02-20T03:21:01.880Z,2.20
2018-02-20T03:23:29.439Z,2.30
2018-02-20T03:25:56.971Z,2.30
2018-02-20T03:28:24.493Z,2.30
2018-02-20T03:30:52.060Z,2.20
2018-02-20T03:33:20.361Z,1.80
2018-02-20T03:35:47.920Z,1.80
2018-02-20T03:38:16.440Z,2.00
2018-02-20T03:40:43.995Z,2.00
2018-02-20T03:43:11.536Z,2.20
2018-02-20T03:45:39.063Z,2.20
2018-02-20T03:48:07.391Z,2.10
2018-02-20T03:50:34.916Z,2.10
2018-02-20T03:53:02.487Z,2.00
2018-02-20T03:55:30.036Z,2.10
2018-02-20T03:57:57.592Z,1.70
2018-02-20T04:00:25.128Z,1.60
2018-02-20T04:02:52.661Z,1.60
2018-02-20T04:05:20.242Z,1.60
2018-02-20T04:07:47.778Z,1.50
2018-02-20T04:10:15.333Z,1.50
2018-02-20T04:12:42.875Z,1.40
2018-02-20T04:15:10.442Z,1.70
2018-02-20T04:17:37.967Z,1.60
2018-02-20T04:20:05.936Z,1.70
2018-02-20T04:22:33.497Z,1.80
2018-02-20T04:25:01.030Z,1.50
2018-02-20T04:27:29.383Z,1.50
2018-02-20T04:29:56.932Z,1.50
2018-02-20T04:32:24.531Z,1.20
2018-02-20T04:34:52.823Z,1.40
2018-02-20T04:37:20.351Z,1.40
2018-02-20T04:39:47.913Z,1.30
2018-02-20T04:42:16.207Z,1.40
2018-02-20T04:44:43.763Z,1.40
2018-02-20T04:47:12.082Z,1.30
2018-02-20T04:49:39.636Z,1.30
2018-02-20T04:52:07.171Z,1.40
2018-02-20T04:54:34.697Z,1.20
2018-02-20T04:57:02.247Z,1.40
2018-02-20T04:59:29.791Z,1.50
2018-02-20T05:01:57.347Z,1.60
2018-02-20T05:04:25.823Z,1.60
2018-02-20T05:06:53.492Z,1.50
2018-02-20T05:09:21.279Z,1.50
2018-02-20T05:11:48.850Z,1.40
2018-02-20T05:14:17.365Z,1.60
2018-02-20T05:16:45.332Z,1.60
2018-02-20T05:19:13.585Z,1.60
2018-02-20T05:21:41.892Z,1.70
2018-02-20T05:24:09.451Z,1.70
2018-02-20T05:26:36.985Z,1.80
2018-02-20T05:29:04.548Z,1.80
2018-02-20T05:31:32.102Z,1.80
2018-02-20T05:33:59.634Z,1.70
2018-02-20T05:36:27.191Z,1.70
2018-02-20T05:38:54.724Z,1.80
2018-02-20T05:41:22.290Z,1.80
2018-02-20T05:43:49.811Z,1.90
2018-02-20T05:46:17.375Z,1.90
2018-02-20T05:48:45.870Z,1.90
2018-02-20T05:51:13.403Z,1.90
2018-02-20T05:53:40.990Z,1.90
2018-02-20T05:56:08.522Z,1.90
2018-02-20T05:58:36.074Z,1.90
2018-02-20T06:01:03.604Z,1.90
2018-02-20T06:03:31.214Z,1.90
2018-02-20T06:05:59.667Z,2.00
2018-02-20T06:08:27.239Z,1.80
2018-02-20T06:10:54.783Z,1.70
2018-02-20T06:13:22.310Z,1.80
2018-02-20T06:15:49.871Z,1.90
2018-02-20T06:18:18.170Z,1.90
2018-02-20T06:20:45.742Z,1.90
2018-02-20T06:23:13.318Z,2.00
2018-02-20T06:25:40.893Z,2.00
2018-02-20T06:28:08.415Z,1.90
2018-02-20T06:30:35.968Z,2.00
2018-02-20T06:33:05.206Z,1.60
2018-02-20T06:35:33.700Z,1.60
2018-02-20T06:38:01.257Z,1.60
2018-02-20T06:40:28.789Z,1.50
2018-02-20T06:42:56.344Z,1.40
2018-02-20T06:45:23.879Z,1.30
2018-02-20T06:47:52.243Z,1.20
2018-02-20T06:50:19.784Z,1.20
2018-02-20T06:52:47.347Z,1.30
2018-02-20T06:55:14.887Z,1.20
2018-02-20T06:57:42.411Z,1.40
2018-02-20T07:00:10.147Z,1.20
2018-02-20T07:02:38.902Z,1.40
2018-02-20T07:05:06.476Z,1.50
2018-02-20T07:07:34.050Z,1.70
2018-02-20T07:10:02.383Z,1.30
2018-02-20T07:12:29.911Z,1.30
2018-02-20T07:14:58.427Z,1.30
2018-02-20T07:17:26.019Z,1.30
2018-02-20T07:19:53.563Z,1.50
2018-02-20T07:22:21.118Z,1.60
2018-02-20T07:24:49.256Z,1.40
2018-02-20T07:27:16.811Z,1.60
2018-02-20T07:29:44.340Z,1.70
2018-02-20T07:32:11.867Z,1.50
2018-02-20T07:34:39.430Z,1.40
2018-02-20T07:37:07.917Z,1.60
2018-02-20T07:39:35.477Z,1.40
2018-02-20T07:42:03.979Z,1.50
2018-02-20T07:44:33.504Z,1.60
2018-02-20T07:47:02.047Z,1.70
2018-02-20T07:49:29.620Z,1.80
2018-02-20T07:51:57.154Z,1.70
2018-02-20T07:54:24.690Z,1.40
2018-02-20T07:56:52.251Z,1.20
2018-02-20T07:59:20.726Z,1.40
2018-02-20T08:01:48.283Z,1.60
2018-02-20T08:04:15.810Z,1.50
2018-02-20T08:06:43.363Z,1.50
2018-02-20T08:09:11.906Z,1.70
2018-02-20T08:11:39.435Z,1.70
2018-02-20T08:14:06.994Z,1.60
2018-02-20T08:16:34.523Z,1.60
2018-02-20T08:19:02.096Z,1.50
2018-02-20T08:21:29.626Z,1.50
2018-02-20T08:23:57.940Z,1.80
2018-02-20T08:26:25.472Z,1.80
2018-02-20T08:28:53.035Z,1.60
2018-02-20T08:31:21.339Z,1.80
2018-02-20T08:33:48.871Z,1.70
2018-02-20T08:36:16.424Z,1.90
2018-02-20T08:38:43.959Z,2.00
2018-02-20T08:41:12.290Z,2.50
2018-02-20T08:43:39.812Z,2.50
2018-02-20T08:46:08.162Z,1.90
2018-02-20T08:48:35.706Z,1.90
2018-02-20T08:51:03.323Z,1.80
2018-02-20T08:53:30.892Z,2.10
2018-02-20T08:55:58.429Z,2.30
2018-02-20T08:58:27.712Z,2.50
2018-02-20T09:00:56.023Z,2.80
2018-02-20T09:03:23.579Z,2.80
2018-02-20T09:05:51.124Z,2.40
2018-02-20T09:08:19.604Z,2.40
2018-02-20T09:10:47.167Z,2.60
2018-02-20T09:13:15.534Z,2.70
2018-02-20T09:15:43.087Z,2.70
2018-02-20T09:18:11.381Z,2.10
2018-02-20T09:20:40.889Z,2.10
2018-02-20T09:23:09.269Z,2.40
2018-02-20T09:25:37.562Z,2.40
2018-02-20T09:28:05.111Z,2.40
2018-02-20T09:30:32.642Z,2.50
2018-02-20T09:33:00.192Z,2.60
2018-02-20T09:35:28.685Z,2.60
2018-02-20T09:37:56.246Z,2.50
2018-02-20T09:40:24.558Z,2.40
2018-02-20T09:42:52.094Z,2.40
2018-02-20T09:45:19.654Z,2.40
2018-02-20T09:47:47.964Z,2.50
2018-02-20T09:50:16.471Z,2.50
2018-02-20T09:52:44.001Z,2.00
2018-02-20T09:55:11.597Z,2.00
2018-02-20T09:57:39.127Z,2.60
2018-02-20T10:00:06.709Z,2.00
2018-02-20T10:02:34.236Z,1.60
2018-02-20T10:05:01.767Z,2.20
2018-02-20T10:07:29.328Z,2.80
2018-02-20T10:09:56.873Z,2.60
2018-02-20T10:12:25.195Z,2.80
2018-02-20T10:14:53.698Z,2.80
2018-02-20T10:17:21.259Z,2.30
2018-02-20T10:19:48.794Z,2.20
2018-02-20T10:22:16.318Z,2.40
2018-02-20T10:24:44.637Z,2.20
2018-02-20T10:27:12.156Z,2.20
2018-02-20T10:29:40.676Z,2.60
2018-02-20T10:32:08.212Z,2.60
2018-02-20T10:34:37.774Z,2.00
2018-02-20T10:37:05.314Z,2.20
2018-02-20T10:39:32.883Z,2.40
2018-02-20T10:42:00.450Z,2.40
2018-02-20T10:44:27.990Z,2.60
2018-02-20T10:46:55.556Z,2.30
2018-02-20T10:49:23.095Z,2.30
2018-02-20T10:51:51.595Z,2.20
2018-02-20T10:54:19.126Z,1.90
2018-02-20T10:56:46.681Z,2.30
2018-02-20T10:59:14.237Z,2.30
2018-02-20T11:01:41.779Z,2.20
2018-02-20T11:04:09.339Z,1.90
2018-02-20T11:06:36.990Z,2.00
2018-02-20T11:09:07.274Z,2.30
2018-02-20T11:11:34.824Z,2.30
2018-02-20T11:14:02.355Z,2.50
2018-02-20T11:16:29.924Z,2.40
2018-02-20T11:18:58.441Z,2.90
2018-02-20T11:21:26.009Z,2.70
2018-02-20T11:23:53.553Z,2.20
2018-02-20T11:26:22.078Z,2.50
2018-02-20T11:28:49.628Z,2.50
2018-02-20T11:31:19.142Z,2.60
2018-02-20T11:33:46.682Z,2.90
2018-02-20T11:36:14.986Z,3.30
2018-02-20T11:38:42.559Z,3.30
2018-02-20T11:41:10.102Z,3.20
2018-02-20T11:43:37.678Z,3.00
2018-02-20T11:46:05.218Z,2.80
2018-02-20T11:48:32.772Z,3.10
2018-02-20T11:51:00.319Z,3.10
2018-02-20T11:53:29.842Z,3.30
2018-02-20T11:55:57.376Z,3.10
2018-02-20T11:58:25.667Z,2.20
2018-02-20T12:00:53.226Z,2.20
2018-02-20T12:03:20.755Z,2.20
2018-02-20T12:05:48.310Z,2.00
2018-02-20T12:08:15.841Z,1.90
2018-02-20T12:10:43.410Z,2.40
2018-02-20T12:13:10.955Z,2.50
2018-02-20T12:15:38.511Z,3.00
2018-02-20T12:18:06.035Z,3.30
2018-02-20T12:20:33.561Z,2.80
2018-02-20T12:23:01.119Z,2.90
2018-02-20T12:25:28.652Z,3.10
2018-02-20T12:27:56.217Z,3.30
2018-02-20T12:30:24.677Z,2.70
2018-02-20T12:32:52.234Z,2.80
2018-02-20T12:35:19.762Z,2.40
2018-02-20T12:37:47.322Z,2.50
2018-02-20T12:40:15.620Z,2.10
2018-02-20T12:42:43.144Z,2.10
2018-02-20T12:45:10.715Z,2.30
2018-02-20T12:47:38.266Z,2.40
2018-02-20T12:50:05.886Z,2.70
2018-02-20T12:52:34.374Z,3.10
2018-02-20T12:55:02.880Z,3.40
2018-02-20T12:57:31.178Z,3.40
2018-02-20T12:59:58.731Z,3.40
2018-02-20T13:02:26.258Z,2.90
2018-02-20T13:04:53.791Z,2.70
2018-02-20T13:07:21.343Z,2.70
2018-02-20T13:09:48.866Z,2.50
2018-02-20T13:12:16.448Z,2.20
2018-02-20T13:14:43.998Z,2.40
2018-02-20T13:17:11.549Z,2.80
2018-02-20T13:19:39.837Z,2.70
2018-02-20T13:22:07.394Z,2.70
2018-02-20T13:24:34.915Z,2.70
2018-02-20T13:27:02.434Z,2.60
2018-02-20T13:29:29.986Z,2.50
2018-02-20T13:31:57.515Z,2.30
2018-02-20T13:34:25.835Z,2.50
2018-02-20T13:36:53.361Z,2.50
2018-02-20T13:39:20.919Z,2.60
2018-02-20T13:41:48.441Z,3.00
2018-02-20T13:44:17.932Z,3.20
2018-02-20T13:46:45.461Z,3.30
2018-02-20T13:49:12.988Z,3.30
2018-02-20T13:51:40.534Z,3.20
2018-02-20T13:54:08.060Z,3.20
2018-02-20T13:56:35.626Z,3.00
2018-02-20T13:59:03.154Z,2.90
2018-02-20T14:01:30.703Z,3.00
2018-02-20T14:03:58.235Z,3.00
2018-02-20T14:06:25.783Z,2.80
2018-02-20T14:08:53.311Z,2.80
2018-02-20T14:11:20.843Z,2.80
2018-02-20T14:13:48.402Z,2.50
2018-02-20T14:16:15.960Z,2.40
2018-02-20T14:18:43.518Z,2.40
2018-02-20T14:21:11.046Z,2.20
2018-02-20T14:23:38.609Z,2.40
2018-02-20T14:26:06.899Z,2.10
2018-02-20T14:28:34.576Z,2.10
2018-02-20T14:31:02.099Z,2.10
2018-02-20T14:33:29.627Z,2.20
2018-02-20T14:35:57.170Z,2.30
2018-02-20T14:38:24.708Z,2.20
2018-02-20T14:40:52.255Z,2.10
2018-02-20T14:43:19.795Z,1.90
2018-02-20T14:45:47.347Z,2.00
2018-02-20T14:48:14.879Z,2.00
2018-02-20T14:50:44.374Z,2.00
2018-02-20T14:53:11.906Z,2.40
2018-02-20T14:55:39.443Z,2.50
2018-02-20T14:58:06.990Z,2.40
2018-02-20T15:00:34.527Z,2.40
2018-02-20T15:03:02.845Z,2.30
2018-02-20T15:05:30.380Z,2.30
2018-02-20T15:07:57.930Z,2.20
2018-02-20T15:10:25.461Z,2.00
2018-02-20T15:12:53.029Z,1.80
2018-02-20T15:15:20.571Z,1.90
2018-02-20T15:17:48.099Z,2.00
2018-02-20T15:20:15.657Z,2.00
2018-02-20T15:22:43.194Z,2.10
2018-02-20T15:25:10.754Z,2.10
2018-02-20T15:27:39.052Z,2.40
2018-02-20T15:30:06.622Z,2.40
2018-02-20T15:32:34.149Z,2.40
2018-02-20T15:35:01.667Z,2.50
2018-02-20T15:37:29.298Z,2.40
2018-02-20T15:39:57.789Z,2.30
2018-02-20T15:42:25.339Z,2.40
2018-02-20T15:44:52.870Z,2.40
2018-02-20T15:47:20.419Z,2.30
2018-02-20T15:49:48.735Z,2.30
2018-02-20T15:52:16.262Z,2.30
2018-02-20T15:54:43.827Z,2.10
2018-02-20T15:57:11.350Z,1.80
2018-02-20T15:59:38.907Z,1.60
2018-02-20T16:02:06.459Z,1.70
2018-02-20T16:04:34.019Z,1.60
2018-02-20T16:07:01.546Z,1.60
2018-02-20T16:09:29.115Z,1.70
2018-02-20T16:11:56.649Z,1.80
2018-02-20T16:14:24.179Z,1.70
2018-02-20T16:16:51.742Z,1.70
2018-02-20T16:19:20.054Z,1.20
2018-02-20T16:21:47.619Z,1.20
2018-02-20T16:24:15.889Z,1.20
2018-02-20T16:26:43.454Z,1.50
2018-02-20T16:29:11.004Z,1.30
2018-02-20T16:31:38.535Z,1.10
2018-02-20T16:34:06.889Z,1.20
2018-02-20T16:36:34.422Z,1.20
2018-02-20T16:39:02.003Z,0.90
2018-02-20T16:41:29.538Z,0.80
2018-02-20T16:43:57.098Z,1.00
2018-02-20T16:46:24.646Z,1.00
2018-02-20T16:48:52.207Z,0.70
2018-02-20T16:51:19.733Z,1.00
2018-02-20T16:53:48.218Z,1.00
2018-02-20T16:56:15.771Z,1.10
2018-02-20T16:58:43.306Z,1.30
2018-02-20T17:01:10.866Z,1.10
2018-02-20T17:03:38.391Z,1.20
2018-02-20T17:06:05.941Z,1.40
2018-02-20T17:08:33.474Z,1.70
2018-02-20T17:11:01.054Z,1.80
2018-02-20T17:13:28.610Z,1.90
2018-02-20T17:15:57.300Z,1.80
2018-02-20T17:18:24.863Z,1.90
2018-02-20T17:20:52.400Z,1.90
2018-02-20T17:23:19.984Z,2.00
2018-02-20T17:25:47.514Z,1.90
2018-02-20T17:28:15.076Z,1.90
2018-02-20T17:30:42.598Z,2.00
2018-02-20T17:33:12.105Z,2.10
2018-02-20T17:35:40.610Z,2.00
2018-02-20T17:38:08.144Z,1.80
2018-02-20T17:40:36.672Z,1.90
2018-02-20T17:43:04.195Z,1.90
2018-02-20T17:45:31.748Z,2.00
2018-02-20T17:47:59.289Z,2.00
2018-02-20T17:50:26.883Z,2.00
2018-02-20T17:52:55.375Z,2.00
2018-02-20T17:55:22.946Z,2.10
2018-02-20T17:57:50.483Z,2.10
2018-02-20T18:00:18.025Z,2.10
2018-02-20T18:02:45.576Z,2.10
2018-02-20T18:05:13.875Z,2.20
2018-02-20T18:07:41.423Z,2.20
2018-02-20T18:10:08.954Z,2.20
2018-02-20T18:12:36.536Z,2.10
2018-02-20T18:15:04.827Z,2.10
2018-02-20T18:17:33.151Z,2.10
2018-02-20T18:20:00.696Z,2.10
2018-02-20T18:22:28.219Z,2.10
2018-02-20T18:24:56.597Z,2.10
2018-02-20T18:27:24.118Z,2.00
2018-02-20T18:29:51.669Z,2.10
2018-02-20T18:32:19.197Z,2.00
2018-02-20T18:34:46.752Z,2.00
2018-02-20T18:37:14.275Z,2.00
2018-02-20T18:39:43.767Z,2.00
2018-02-20T18:42:11.323Z,2.10
2018-02-20T18:44:38.871Z,2.10
2018-02-20T18:47:06.426Z,2.00
2018-02-20T18:49:33.963Z,2.00
2018-02-20T18:52:01.515Z,1.80
2018-02-20T18:54:29.039Z,1.80
2018-02-20T18:56:56.763Z,1.90
2018-02-20T18:59:24.321Z,2.00
2018-02-20T19:01:51.874Z,1.90
2018-02-20T19:04:19.408Z,1.90
2018-02-20T19:06:47.897Z,1.90
2018-02-20T19:09:15.456Z,2.00
2018-02-20T19:11:42.991Z,1.90
2018-02-20T19:14:10.558Z,1.90
2018-02-20T19:16:38.117Z,1.90
2018-02-20T19:19:05.687Z,1.90
2018-02-20T19:21:33.223Z,1.40
2018-02-20T19:24:00.786Z,1.20
2018-02-20T19:26:28.335Z,1.20
2018-02-20T19:28:56.657Z,1.80
2018-02-20T19:31:25.232Z,1.70
2018-02-20T19:33:52.769Z,1.70
2018-02-20T19:36:21.282Z,1.60
2018-02-20T19:38:48.827Z,1.50
2018-02-20T19:41:16.395Z,1.70
2018-02-20T19:43:43.944Z,2.00
2018-02-20T19:46:12.760Z,1.90
2018-02-20T19:48:40.508Z,1.80
2018-02-20T19:51:08.063Z,2.00
2018-02-20T19:53:35.630Z,2.00
2018-02-20T19:56:03.161Z,1.60
2018-02-20T19:58:30.713Z,1.30
2018-02-20T20:00:58.245Z,1.50
2018-02-20T20:03:26.582Z,1.20
2018-02-20T20:05:54.110Z,1.20
2018-02-20T20:08:21.668Z,1.40
2018-02-20T20:10:50.158Z,1.40
2018-02-20T20:13:17.727Z,1.10
2018-02-20T20:15:45.263Z,1.20
2018-02-20T20:18:12.797Z,0.90
2018-02-20T20:20:47.935Z,0.70
2018-02-20T20:23:07.929Z,0.90
2018-02-20T20:25:37.419Z,0.90
2018-02-20T20:28:05.730Z,0.90
2018-02-20T20:30:33.286Z,0.90
2018-02-20T20:33:00.814Z,0.90
2018-02-20T20:35:30.095Z,1.00
2018-02-20T20:37:58.583Z,1.00
2018-02-20T20:40:26.107Z,0.90
2018-02-20T20:42:53.670Z,1.10
2018-02-20T20:45:21.207Z,1.30
2018-02-20T20:47:50.718Z,1.10
2018-02-20T20:50:18.278Z,1.20
2018-02-20T20:52:45.850Z,1.10
2018-02-20T20:55:13.384Z,1.20
2018-02-20T20:57:41.915Z,1.30
2018-02-20T21:00:09.492Z,1.30
2018-02-20T21:02:37.023Z,1.40
2018-02-20T21:05:05.600Z,1.60
2018-02-20T21:07:33.130Z,1.80
2018-02-20T21:10:00.682Z,1.80
2018-02-20T21:12:29.193Z,1.70
2018-02-20T21:14:56.749Z,1.70
2018-02-20T21:17:24.270Z,1.80
2018-02-20T21:19:51.808Z,1.90
2018-02-20T21:22:20.134Z,2.00
2018-02-20T21:24:47.979Z,2.00
2018-02-20T21:27:15.558Z,2.00
2018-02-20T21:29:43.083Z,2.00
2018-02-20T21:32:10.642Z,2.10
2018-02-20T21:34:38.192Z,2.10
2018-02-20T21:37:05.755Z,2.10
2018-02-20T21:39:33.282Z,2.10
2018-02-20T21:42:00.887Z,2.10
2018-02-20T21:44:28.453Z,2.20
2018-02-20T21:46:56.015Z,2.20
2018-02-20T21:49:23.609Z,2.20
2018-02-20T21:51:51.144Z,2.20
2018-02-20T21:54:18.714Z,2.20
2018-02-20T21:56:46.245Z,2.10
2018-02-20T21:59:13.799Z,2.10
2018-02-20T22:01:41.370Z,2.20
2018-02-20T22:04:08.965Z,2.20
2018-02-20T22:06:36.498Z,2.20
2018-02-20T22:09:04.070Z,2.20
2018-02-20T22:11:32.605Z,2.00
2018-02-20T22:14:00.152Z,1.90
2018-02-20T22:16:27.710Z,2.00
2018-02-20T22:18:56.003Z,2.10
2018-02-20T22:21:23.559Z,2.10
2018-02-20T22:23:51.852Z,2.10
2018-02-20T22:26:19.414Z,2.10
2018-02-20T22:28:46.938Z,2.10
2018-02-20T22:31:15.231Z,2.00
2018-02-20T22:33:43.561Z,2.10
2018-02-20T22:36:11.108Z,2.10
2018-02-20T22:38:38.671Z,2.00
2018-02-20T22:41:06.194Z,2.00
2018-02-20T22:43:35.703Z,2.00
2018-02-20T22:46:03.238Z,1.90
2018-02-20T22:48:32.816Z,1.90
2018-02-20T22:51:00.360Z,1.80
2018-02-20T22:53:27.916Z,1.80
2018-02-20T22:55:56.407Z,1.80
2018-02-20T22:58:25.912Z,1.70
2018-02-20T23:00:53.463Z,1.80
2018-02-20T23:03:21.940Z,1.80
2018-02-20T23:05:51.457Z,1.80
2018-02-20T23:08:19.001Z,1.90
2018-02-20T23:10:46.574Z,1.90
2018-02-20T23:13:14.122Z,1.90
2018-02-20T23:15:42.783Z,1.90
2018-02-20T23:18:10.309Z,1.90
2018-02-20T23:20:37.878Z,1.90
2018-02-20T23:23:06.406Z,2.00
2018-02-20T23:25:33.956Z,1.90
2018-02-20T23:28:01.560Z,1.10
2018-02-20T23:30:29.112Z,0.90
2018-02-20T23:32:56.684Z,0.90
2018-02-20T23:35:24.989Z,1.60
2018-02-20T23:37:52.548Z,1.50
2018-02-20T23:40:20.079Z,1.80
2018-02-20T23:42:48.422Z,1.70
2018-02-20T23:45:15.970Z,1.60
2018-02-20T23:47:44.532Z,1.70
2018-02-20T23:50:12.090Z,1.80
2018-02-20T23:52:39.643Z,1.70
2018-02-20T23:55:07.172Z,1.40
2018-02-20T23:57:34.699Z,1.20
